Aérodrome :
LOGIN :

S'inscrire | Disclaimer

   EN    FR    IT 

 










Légende :    VFR   VFR Marginal   IFR   IFR Intensif   IFR Très Intensif
Visi : 
Plafond : 
>= 8 km
>= 3000ft
5 à 8 km
1000 à 3000 ft
1500m à 5 km
500 à 1000 ft
800 à 1500m
200 à 500 ft
< 800m
< 200 ft
Symboles :   Orages  Brouillard  Fortes neiges  Fortes précipitations  Vent > 20 kt
SIGMETs :   Divers  Orages  Givrage  Turbulence  Onde Orograph.  Cendres Volcan.







- Altitude de l'aérodrome : 90 ft
- Code IATA : NTE
- Voir les cartes d'approche


LFRS - Nantes

DERNIER METAR :
  • 221400Z AUTO 30008KT 250V330 CAVOK 08/02 Q1007 TEMPO 4000 SHRA SCT015 SCT026TCU

METARs EXPIRÉS :
  • 221330Z AUTO 29012KT 260V320 9999 FEW031 09/02 Q1007 TEMPO 4000 SHRA SCT015 SCT026TCU
  • 221300Z AUTO 30009KT 260V340 9999 BKN028 BKN038 09/03 Q1007 NOSIG
  • 221230Z AUTO 30010KT 270V330 9999 FEW029 SCT036 BKN140 09/03 Q1008 NOSIG
  • 221200Z AUTO 30010KT 270V340 CAVOK 08/04 Q1008 NOSIG
  • 221130Z AUTO 30010KT 260V330 CAVOK 08/04 Q1009 NOSIG
  • 221100Z AUTO 31010KT 270V330 CAVOK 07/04 Q1009 NOSIG

TAF TAF LFRS
Valide du 22 à 12h jusqu'au 23 à 18h UTC


221100Z 2212/2318 28010KT 9999 SCT030
TEMPO 2215/2316 4000 SHRA SCT015 SCT026TCU
ATIS : +33 2 40 05 12 74
Pas de NOTAMs connus pour ce terrain.



MET'MAP, la Météo Aéronautique d'un coup d'oeil ! - Copyright ORBIFLY Décembre 2007 - Disclaimer

ORBIFLY MET'MAP TEAM :

Programmation & Développement : Alexandra Zaïnal
Conception & Développement : Baudouin d'Aumeries
Co-Programmation & Développement : Marc-Olivier Méhu
Soutien technique & logistique : Manuel Goepfert

Contact : metmap@orbifly.com




SOURCES & CREDITS :

   NOAA